Time;durP1;ratioP1;P1;durP2;ratioP2;P2;SDS_P1;SDS_P2;PMS_P1;PMS_P2;Temp;Humidity;BMP_temperature;BMP_pressure;BME280_temperature;BME280_humidity;BME280_pressure;Samples;Min_cycle;Max_cycle;Signal;HPM_P1;HPM_P2
2024/02/11 00:01:35;;;;;;;0.85;0.85;;;9.10;99.90;;;;;;6096523;23;20014;-79
2024/02/11 00:04:02;;;;;;;0.40;0.40;;;8.90;99.90;;;;;;6095588;23;20117;-81
2024/02/11 00:06:28;;;;;;;0.30;0.30;;;9.00;99.90;;;;;;6119648;23;20053;-80
2024/02/11 00:08:54;;;;;;;0.52;0.52;;;8.90;99.90;;;;;;6119343;23;20021;-80
2024/02/11 00:11:21;;;;;;;2.13;1.95;;;8.90;99.90;;;;;;6147412;23;20625;-80
2024/02/11 00:13:49;;;;;;;0.70;0.70;;;8.90;99.90;;;;;;6097806;23;20044;-80
2024/02/11 00:16:15;;;;;;;0.93;0.93;;;8.90;99.90;;;;;;6120582;23;20024;-81
2024/02/11 00:18:41;;;;;;;0.60;0.60;;;8.90;99.90;;;;;;6091732;23;20022;-82
2024/02/11 00:21:07;;;;;;;0.50;0.50;;;8.90;99.90;;;;;;6117792;23;20017;-82
2024/02/11 00:23:36;;;;;;;0.40;0.40;;;8.90;99.90;;;;;;6122725;23;20009;-81
2024/02/11 00:26:05;;;;;;;0.63;0.63;;;8.90;99.90;;;;;;6151122;23;20028;-81
2024/02/11 00:28:31;;;;;;;0.70;0.70;;;8.80;99.90;;;;;;6150709;23;20013;-81
2024/02/11 00:30:57;;;;;;;0.55;0.55;;;8.90;99.90;;;;;;6126527;23;20014;-81
2024/02/11 00:33:24;;;;;;;0.40;0.40;;;8.90;99.90;;;;;;6153158;23;20092;-82
2024/02/11 00:35:50;;;;;;;0.60;0.60;;;8.80;99.90;;;;;;6077219;23;20017;-82
2024/02/11 00:38:17;;;;;;;1.38;1.27;;;8.80;99.90;;;;;;6127137;23;20036;-84
2024/02/11 00:40:43;;;;;;;0.40;0.40;;;8.80;99.90;;;;;;6127727;23;20029;-83
2024/02/11 00:43:09;;;;;;;0.40;0.40;;;8.80;99.90;;;;;;6152923;23;20014;-82
2024/02/11 00:45:35;;;;;;;0.60;0.60;;;8.80;99.90;;;;;;6125241;23;20100;-82
2024/02/11 00:48:06;;;;;;;0.32;0.32;;;8.80;99.90;;;;;;6126156;23;20017;-83
2024/02/11 00:50:32;;;;;;;0.85;0.85;;;8.80;99.90;;;;;;6126059;23;20010;-83
2024/02/11 00:53:01;;;;;;;0.70;0.70;;;8.80;99.90;;;;;;6101774;23;20016;-84
2024/02/11 00:55:26;;;;;;;0.60;0.60;;;8.80;99.90;;;;;;6102348;23;20013;-83
2024/02/11 00:57:52;;;;;;;5.82;0.50;;;8.80;99.90;;;;;;6125684;23;20025;-83
2024/02/11 01:00:18;;;;;;;1.08;1.08;;;8.80;99.90;;;;;;6101268;23;20044;-82
2024/02/11 01:02:44;;;;;;;;;;;8.80;99.90;;;;;;6126313;23;20032;-82
2024/02/11 01:05:13;;;;;;;0.40;0.40;;;8.80;99.90;;;;;;6125708;23;19916;-83
2024/02/11 01:07:40;;;;;;;0.32;0.32;;;8.70;99.90;;;;;;6127303;23;20025;-83
2024/02/11 01:10:10;;;;;;;0.50;0.50;;;8.70;99.90;;;;;;6127951;23;20017;-82
2024/02/11 01:12:39;;;;;;;1.00;1.00;;;8.70;99.90;;;;;;6104569;23;20028;-82
2024/02/11 01:15:06;;;;;;;0.30;0.30;;;8.70;99.90;;;;;;6104020;23;20021;-82
2024/02/11 01:17:32;;;;;;;0.98;0.95;;;8.70;99.90;;;;;;6102941;23;20044;-82
2024/02/11 01:20:01;;;;;;;0.30;0.30;;;8.70;99.90;;;;;;6154224;23;20021;-82
2024/02/11 01:22:28;;;;;;;;;;;8.70;99.90;;;;;;6103514;23;20018;-81
2024/02/11 01:24:53;;;;;;;0.40;0.40;;;8.70;99.90;;;;;;6127567;23;19924;-82
2024/02/11 01:27:19;;;;;;;0.38;0.38;;;8.70;99.90;;;;;;6126664;23;20372;-80
2024/02/11 01:29:44;;;;;;;1.73;1.05;;;8.70;99.90;;;;;;6126737;23;20061;-80
2024/02/11 01:32:10;;;;;;;0.80;0.80;;;8.60;99.90;;;;;;6103102;23;20053;-80
2024/02/11 01:34:36;;;;;;;2.30;0.68;;;8.60;99.90;;;;;;6079087;23;20017;-80
2024/02/11 01:37:01;;;;;;;0.68;0.68;;;8.60;99.90;;;;;;6153102;23;20029;-80
2024/02/11 01:39:27;;;;;;;0.40;0.40;;;8.50;99.90;;;;;;6127174;23;20024;-80
2024/02/11 01:41:53;;;;;;;0.77;0.77;;;8.60;99.90;;;;;;6152841;23;20013;-79
2024/02/11 01:44:19;;;;;;;0.93;0.93;;;8.50;99.90;;;;;;6103153;23;20017;-81
2024/02/11 01:46:46;;;;;;;1.52;1.42;;;8.50;99.90;;;;;;6077790;23;20184;-80
2024/02/11 01:49:12;;;;;;;1.13;1.13;;;8.50;99.90;;;;;;6151698;23;20024;-81
2024/02/11 01:51:43;;;;;;;1.55;0.82;;;8.50;99.90;;;;;;6103080;23;20066;-81
2024/02/11 01:54:14;;;;;;;0.45;0.45;;;8.40;99.90;;;;;;6103050;23;20342;-81
2024/02/11 01:56:40;;;;;;;0.40;0.40;;;8.40;99.90;;;;;;6102751;23;20021;-80
2024/02/11 01:59:06;;;;;;;;;;;8.40;99.90;;;;;;6127122;23;20080;-81
2024/02/11 02:01:33;;;;;;;0.70;0.70;;;8.40;99.90;;;;;;6126924;23;19959;-81
2024/02/11 02:03:59;;;;;;;0.50;0.50;;;8.30;99.90;;;;;;6127072;23;20017;-81
2024/02/11 02:06:25;;;;;;;0.50;0.50;;;8.30;99.90;;;;;;6126585;23;20025;-81
2024/02/11 02:08:51;;;;;;;;;;;8.30;99.90;;;;;;6102329;23;20357;-81
2024/02/11 02:11:17;;;;;;;0.85;0.82;;;8.20;99.90;;;;;;6128311;23;19959;-81
2024/02/11 02:13:43;;;;;;;0.45;0.45;;;8.20;99.90;;;;;;6153927;23;20021;-81
2024/02/11 02:16:09;;;;;;;0.43;0.43;;;8.30;99.90;;;;;;6127316;23;20064;-80
2024/02/11 02:18:35;;;;;;;0.50;0.50;;;8.20;99.90;;;;;;6126791;23;20017;-81
2024/02/11 02:21:04;;;;;;;0.40;0.40;;;8.20;99.90;;;;;;6126520;23;20014;-79
2024/02/11 02:23:30;;;;;;;0.30;0.30;;;8.20;99.90;;;;;;6126689;23;20045;-80
2024/02/11 02:25:57;;;;;;;0.55;0.55;;;8.20;99.90;;;;;;6102422;23;20021;-79
2024/02/11 02:28:23;;;;;;;0.45;0.45;;;8.20;99.90;;;;;;6127300;23;20556;-80
2024/02/11 02:30:49;;;;;;;0.40;0.40;;;8.10;99.90;;;;;;6127899;23;20041;-80
2024/02/11 02:33:14;;;;;;;0.90;0.90;;;8.20;99.90;;;;;;6103274;23;20018;-80
2024/02/11 02:35:40;;;;;;;0.60;0.60;;;8.10;99.90;;;;;;6127043;23;20009;-80
2024/02/11 02:38:06;;;;;;;1.13;1.10;;;8.10;99.90;;;;;;6126387;23;20016;-79
2024/02/11 02:40:32;;;;;;;0.40;0.40;;;8.10;99.90;;;;;;6127262;23;20013;-79
2024/02/11 02:42:58;;;;;;;0.50;0.50;;;8.10;99.90;;;;;;6126446;23;20014;-81
2024/02/11 02:45:24;;;;;;;0.57;0.57;;;8.10;99.90;;;;;;6154128;23;20009;-80
2024/02/11 02:47:50;;;;;;;;;;;8.10;99.90;;;;;;6152866;23;20032;-80
2024/02/11 02:50:16;;;;;;;0.43;0.43;;;8.10;99.90;;;;;;6126849;23;19913;-81
2024/02/11 02:52:43;;;;;;;0.60;0.60;;;8.10;99.90;;;;;;6126752;23;20014;-81
2024/02/11 02:55:09;;;;;;;0.82;0.82;;;8.10;99.90;;;;;;6152630;23;20080;-81
2024/02/11 02:57:35;;;;;;;0.65;0.65;;;8.10;99.90;;;;;;6126686;23;20437;-82
2024/02/11 03:00:09;;;;;;;0.60;0.60;;;8.00;99.90;;;;;;6101332;23;20021;-81
2024/02/11 03:02:35;;;;;;;0.30;0.30;;;8.30;99.90;;;;;;6152752;23;20476;-82
2024/02/11 03:05:02;;;;;;;0.50;0.50;;;8.00;99.90;;;;;;6101453;23;20029;-81
2024/02/11 03:07:28;;;;;;;0.75;0.75;;;8.00;99.90;;;;;;6126767;23;20500;-82
2024/02/11 03:09:54;;;;;;;0.40;0.40;;;8.00;99.90;;;;;;6101889;23;20017;-81
2024/02/11 03:12:19;;;;;;;0.40;0.40;;;8.00;99.90;;;;;;6152629;23;20051;-81
2024/02/11 03:14:47;;;;;;;0.40;0.40;;;7.90;99.90;;;;;;6126014;23;20029;-81
2024/02/11 03:17:13;;;;;;;0.52;0.52;;;7.90;99.90;;;;;;6152353;23;20092;-81
2024/02/11 03:19:41;;;;;;;0.50;0.50;;;7.90;99.90;;;;;;6126185;23;20057;-82
2024/02/11 03:22:13;;;;;;;0.50;0.50;;;7.90;99.90;;;;;;6152821;23;20524;-80
2024/02/11 03:24:41;;;;;;;0.40;0.40;;;7.90;99.90;;;;;;6153094;23;20032;-81
2024/02/11 03:27:07;;;;;;;0.47;0.47;;;7.90;99.90;;;;;;6101849;23;20346;-82
2024/02/11 03:29:33;;;;;;;0.40;0.40;;;7.90;99.90;;;;;;6152011;23;20021;-79
2024/02/11 03:31:59;;;;;;;;;;;7.80;99.90;;;;;;6126140;23;20164;-78
2024/02/11 03:34:27;;;;;;;0.50;0.50;;;7.80;99.90;;;;;;6078043;23;20348;-79
2024/02/11 03:36:53;;;;;;;0.43;0.43;;;7.80;99.90;;;;;;6102119;23;20024;-80
2024/02/11 03:39:19;;;;;;;0.57;0.57;;;7.80;99.90;;;;;;6126854;23;20017;-82
2024/02/11 03:41:46;;;;;;;0.40;0.40;;;8.10;99.90;;;;;;6102644;23;20014;-79
2024/02/11 03:44:12;;;;;;;0.40;0.40;;;7.80;99.90;;;;;;6125538;23;20013;-79
2024/02/11 03:46:38;;;;;;;;;;;7.80;99.90;;;;;;6152554;23;20018;-80
2024/02/11 03:49:03;;;;;;;0.40;0.40;;;7.70;99.90;;;;;;6154437;23;19923;-82
2024/02/11 03:51:32;;;;;;;0.30;0.30;;;7.70;99.90;;;;;;6103069;23;20025;-81
2024/02/11 03:54:00;;;;;;;0.45;0.45;;;7.70;99.90;;;;;;6125487;23;20524;-82
2024/02/11 03:56:28;;;;;;;0.47;0.47;;;7.70;99.90;;;;;;6102213;23;20457;-82
2024/02/11 03:58:55;;;;;;;0.40;0.40;;;7.70;99.90;;;;;;6126644;23;20064;-81
2024/02/11 04:01:21;;;;;;;3.72;0.63;;;7.70;99.90;;;;;;6126491;23;20024;-81
2024/02/11 04:03:47;;;;;;;;;;;7.70;99.90;;;;;;6128169;23;20005;-81
2024/02/11 04:06:13;;;;;;;0.40;0.40;;;7.70;99.90;;;;;;6152719;23;20375;-82
2024/02/11 04:08:41;;;;;;;;;;;7.70;99.90;;;;;;6151500;23;20013;-81
2024/02/11 04:11:07;;;;;;;0.40;0.40;;;7.70;99.90;;;;;;6128016;23;19935;-81
2024/02/11 04:13:33;;;;;;;;;;;7.60;99.90;;;;;;6152557;23;20021;-82
2024/02/11 04:16:05;;;;;;;0.40;0.40;;;7.60;99.90;;;;;;6152808;23;19923;-81
2024/02/11 04:18:32;;;;;;;0.73;0.73;;;7.60;99.90;;;;;;6104011;23;20045;-82
2024/02/11 04:20:59;;;;;;;0.60;0.60;;;7.60;99.90;;;;;;6126924;23;20013;-81
2024/02/11 04:23:25;;;;;;;0.82;0.82;;;7.60;99.90;;;;;;6126565;23;20352;-83
2024/02/11 04:25:52;;;;;;;0.30;0.30;;;7.60;99.90;;;;;;6108539;23;20366;-82
2024/02/11 04:28:20;;;;;;;0.40;0.40;;;7.60;99.90;;;;;;6150656;23;20378;-81
2024/02/11 04:30:46;;;;;;;2.40;2.15;;;7.60;99.90;;;;;;6125476;23;20032;-81
2024/02/11 04:33:20;;;;;;;0.57;0.57;;;7.50;99.90;;;;;;6101793;23;20017;-82
2024/02/11 04:35:49;;;;;;;0.70;0.70;;;7.60;99.90;;;;;;6102625;23;20021;-81
2024/02/11 04:38:17;;;;;;;0.30;0.30;;;7.50;99.90;;;;;;6125721;23;20120;-81
2024/02/11 04:40:43;;;;;;;1.45;1.40;;;7.50;99.90;;;;;;6127224;23;20018;-82
2024/02/11 04:43:09;;;;;;;0.50;0.50;;;7.50;99.90;;;;;;6126702;23;20511;-82
2024/02/11 04:45:37;;;;;;;0.50;0.50;;;7.50;99.90;;;;;;6126934;23;20032;-81
2024/02/11 04:48:03;;;;;;;0.40;0.40;;;7.50;99.90;;;;;;6101317;23;20057;-81
2024/02/11 04:50:31;;;;;;;3.33;3.05;;;7.50;99.90;;;;;;6151086;23;20017;-80
2024/02/11 04:53:01;;;;;;;0.50;0.50;;;7.50;99.90;;;;;;6126105;23;20021;-82
2024/02/11 04:55:38;;;;;;;0.55;0.55;;;7.40;99.90;;;;;;6102160;23;20017;-83
2024/02/11 04:58:07;;;;;;;0.50;0.50;;;7.40;99.90;;;;;;6101917;23;20024;-79
2024/02/11 05:00:36;;;;;;;0.93;0.93;;;7.40;99.90;;;;;;6126252;23;20413;-80
2024/02/11 05:03:06;;;;;;;1.48;1.15;;;7.40;99.90;;;;;;6126190;23;20021;-79
2024/02/11 05:05:33;;;;;;;0.50;0.50;;;7.40;99.90;;;;;;6152226;23;20017;-80
2024/02/11 05:08:07;;;;;;;1.08;0.98;;;7.40;99.90;;;;;;6101595;23;20397;-79
2024/02/11 05:10:35;;;;;;;2.05;0.85;;;7.40;99.90;;;;;;6101203;23;20517;-79
2024/02/11 05:13:04;;;;;;;0.50;0.50;;;7.40;99.90;;;;;;6125882;23;20025;-79
2024/02/11 05:15:36;;;;;;;0.57;0.57;;;7.40;99.90;;;;;;6125348;23;20072;-79
2024/02/11 05:18:02;;;;;;;0.70;0.70;;;7.40;99.90;;;;;;6125236;23;20029;-81
2024/02/11 05:20:29;;;;;;;0.50;0.50;;;7.30;99.90;;;;;;6125051;23;20025;-79
2024/02/11 05:22:56;;;;;;;0.30;0.30;;;7.30;99.90;;;;;;6125748;23;20017;-78
2024/02/11 05:25:23;;;;;;;0.80;0.80;;;7.40;99.90;;;;;;6077513;23;20025;-78
2024/02/11 05:27:58;;;;;;;0.40;0.40;;;7.30;99.90;;;;;;6125675;23;20083;-81
2024/02/11 05:30:25;;;;;;;0.40;0.40;;;7.40;99.90;;;;;;6150495;23;20017;-79
2024/02/11 05:32:56;;;;;;;0.77;0.77;;;7.40;99.90;;;;;;6126095;23;20017;-79
2024/02/11 05:35:27;;;;;;;0.60;0.60;;;7.30;99.90;;;;;;6152199;23;20017;-78
2024/02/11 05:37:58;;;;;;;0.57;0.57;;;7.30;99.90;;;;;;6125759;23;20536;-79
2024/02/11 05:40:31;;;;;;;0.32;0.32;;;7.40;99.90;;;;;;6101521;23;20450;-79
2024/02/11 05:43:01;;;;;;;0.30;0.30;;;7.30;99.90;;;;;;6125130;23;20465;-79
2024/02/11 05:45:27;;;;;;;0.60;0.60;;;7.30;99.90;;;;;;6125013;23;20084;-79
2024/02/11 05:47:54;;;;;;;0.43;0.43;;;7.30;99.90;;;;;;6125012;23;20014;-80
2024/02/11 05:50:21;;;;;;;0.40;0.40;;;7.30;99.90;;;;;;6124883;23;20453;-79
2024/02/11 05:52:48;;;;;;;0.50;0.50;;;7.30;99.90;;;;;;6125344;23;20018;-78
2024/02/11 05:55:18;;;;;;;0.40;0.40;;;7.30;99.90;;;;;;6102363;23;20045;-78
2024/02/11 05:57:46;;;;;;;0.30;0.30;;;7.30;99.90;;;;;;6127562;23;20080;-80
2024/02/11 06:00:14;;;;;;;0.95;0.95;;;7.30;99.90;;;;;;6102340;23;20093;-79
2024/02/11 06:02:42;;;;;;;0.57;0.57;;;7.30;99.90;;;;;;6102836;23;20033;-79
2024/02/11 06:05:12;;;;;;;0.73;0.63;;;7.30;99.90;;;;;;6102251;23;20017;-80
2024/02/11 06:08:01;;;;;;;0.50;0.50;;;7.30;99.90;;;;;;6102500;23;20092;-79
2024/02/11 06:10:30;;;;;;;0.70;0.70;;;7.30;99.90;;;;;;6152451;23;20639;-80
2024/02/11 06:13:01;;;;;;;0.43;0.43;;;7.30;99.90;;;;;;6079253;23;20028;-80
2024/02/11 06:15:27;;;;;;;0.30;0.30;;;7.30;99.90;;;;;;6102212;23;20025;-79
2024/02/11 06:17:53;;;;;;;0.40;0.40;;;7.30;99.90;;;;;;6127105;23;20457;-78
2024/02/11 06:20:20;;;;;;;0.40;0.40;;;7.30;99.90;;;;;;6125984;23;20397;-79
2024/02/11 06:22:49;;;;;;;0.50;0.50;;;7.30;99.90;;;;;;6153193;23;20017;-79
2024/02/11 06:25:16;;;;;;;0.40;0.40;;;7.40;99.90;;;;;;6127012;23;20044;-79
2024/02/11 06:27:42;;;;;;;0.40;0.40;;;7.30;99.90;;;;;;6102644;23;20068;-79
2024/02/11 06:30:12;;;;;;;0.50;0.50;;;7.30;99.90;;;;;;6102443;23;20342;-79
2024/02/11 06:32:46;;;;;;;0.30;0.30;;;7.40;99.90;;;;;;6126913;23;20331;-79
2024/02/11 06:35:14;;;;;;;0.40;0.40;;;7.40;99.90;;;;;;6127413;23;20037;-79
2024/02/11 06:37:46;;;;;;;0.40;0.40;;;7.40;99.90;;;;;;6102206;23;20021;-80
2024/02/11 06:40:28;;;;;;;0.30;0.30;;;7.40;99.90;;;;;;6102746;23;20013;-80
2024/02/11 06:42:54;;;;;;;0.35;0.35;;;7.40;99.90;;;;;;6104365;23;20020;-81
2024/02/11 06:45:20;;;;;;;;;;;7.30;99.90;;;;;;6154177;23;20023;-82
2024/02/11 06:47:46;;;;;;;0.30;0.30;;;7.30;99.90;;;;;;6127162;23;19916;-81
2024/02/11 06:50:16;;;;;;;0.68;0.68;;;7.30;99.90;;;;;;6153880;23;20545;-81
2024/02/11 06:52:42;;;;;;;0.40;0.40;;;7.30;99.90;;;;;;6126935;23;20898;-81
2024/02/11 06:55:15;;;;;;;0.47;0.47;;;7.40;99.90;;;;;;6153391;23;20017;-80
2024/02/11 06:57:41;;;;;;;0.35;0.35;;;7.30;99.90;;;;;;6126900;23;20080;-82
2024/02/11 07:00:11;;;;;;;0.40;0.40;;;7.30;99.90;;;;;;6127484;23;20107;-81
2024/02/11 07:02:37;;;;;;;0.32;0.32;;;7.30;99.90;;;;;;6152880;23;20017;-81
2024/02/11 07:05:09;;;;;;;0.50;0.50;;;7.30;99.90;;;;;;6102779;23;20100;-81
2024/02/11 07:07:35;;;;;;;0.40;0.40;;;7.30;99.90;;;;;;6123680;23;20021;-81
2024/02/11 07:10:01;;;;;;;0.65;0.65;;;7.30;99.90;;;;;;6073940;23;20024;-81
2024/02/11 07:12:27;;;;;;;0.32;0.32;;;7.30;99.90;;;;;;6122537;23;20085;-81
2024/02/11 07:14:53;;;;;;;0.40;0.40;;;7.30;99.90;;;;;;6124190;23;20018;-81
2024/02/11 07:17:19;;;;;;;0.80;0.80;;;7.40;99.90;;;;;;6073086;23;20025;-81
2024/02/11 07:19:46;;;;;;;0.47;0.47;;;7.30;99.90;;;;;;6123691;23;20250;-81
2024/02/11 07:22:13;;;;;;;0.50;0.50;;;7.30;99.90;;;;;;6097216;23;20450;-82
2024/02/11 07:24:41;;;;;;;0.70;0.70;;;7.30;99.90;;;;;;6074530;23;20025;-82
2024/02/11 07:27:09;;;;;;;0.70;0.70;;;7.30;99.90;;;;;;6097623;23;20098;-81
2024/02/11 07:29:35;;;;;;;0.38;0.38;;;7.40;99.90;;;;;;6097017;23;20013;-81
2024/02/11 07:32:02;;;;;;;0.40;0.40;;;7.30;99.90;;;;;;6123790;23;20017;-81
2024/02/11 07:34:29;;;;;;;0.40;0.40;;;7.30;99.90;;;;;;6097219;23;20014;-81
2024/02/11 07:36:55;;;;;;;0.50;0.50;;;7.30;99.90;;;;;;6123545;23;20078;-81
2024/02/11 07:39:21;;;;;;;;;;;7.60;99.90;;;;;;6125481;23;20054;-82
2024/02/11 07:41:47;;;;;;;0.50;0.50;;;7.50;99.90;;;;;;6097680;23;19916;-82
2024/02/11 07:44:12;;;;;;;0.40;0.40;;;7.30;99.90;;;;;;6098822;23;20022;-82
2024/02/11 07:46:39;;;;;;;0.50;0.50;;;7.30;99.90;;;;;;6123795;23;20085;-81
2024/02/11 07:49:05;;;;;;;1.33;1.25;;;7.30;99.90;;;;;;6102622;23;20342;-81
2024/02/11 07:51:31;;;;;;;0.50;0.50;;;7.30;99.90;;;;;;6122962;23;20013;-83
2024/02/11 07:53:57;;;;;;;0.50;0.50;;;7.30;99.90;;;;;;6124615;23;20038;-82
2024/02/11 07:56:23;;;;;;;;;;;7.30;99.90;;;;;;6099638;23;20018;-82
2024/02/11 07:58:49;;;;;;;0.45;0.45;;;7.30;99.90;;;;;;6098532;23;19913;-82
2024/02/11 08:01:15;;;;;;;;;;;7.50;99.90;;;;;;6098982;23;20496;-82
2024/02/11 08:03:40;;;;;;;0.45;0.45;;;7.30;99.90;;;;;;6123839;23;19940;-82
2024/02/11 08:06:09;;;;;;;0.40;0.40;;;7.30;99.90;;;;;;6135075;23;20049;-82
2024/02/11 08:08:37;;;;;;;0.50;0.50;;;7.30;99.90;;;;;;6153220;23;20018;-82
2024/02/11 08:11:04;;;;;;;0.30;0.30;;;7.30;99.90;;;;;;6153267;23;20484;-81
2024/02/11 08:13:32;;;;;;;0.43;0.43;;;7.30;99.90;;;;;;6154152;23;20021;-82
2024/02/11 08:16:00;;;;;;;0.40;0.40;;;7.30;99.90;;;;;;6127961;23;20022;-81
2024/02/11 08:18:26;;;;;;;0.70;0.70;;;7.30;99.90;;;;;;6155857;23;20015;-80
2024/02/11 08:20:51;;;;;;;0.47;0.47;;;7.40;99.90;;;;;;6154587;23;20045;-81
2024/02/11 08:23:17;;;;;;;0.50;0.50;;;7.30;99.90;;;;;;6127350;23;20045;-80
2024/02/11 08:25:44;;;;;;;0.40;0.40;;;7.30;99.90;;;;;;6127150;23;20022;-81
2024/02/11 08:28:09;;;;;;;0.40;0.40;;;7.30;99.90;;;;;;6154404;23;20017;-83
2024/02/11 08:30:36;;;;;;;0.50;0.50;;;7.30;99.90;;;;;;6153930;23;20072;-82
2024/02/11 08:33:02;;;;;;;0.40;0.40;;;7.40;99.90;;;;;;6153691;23;20346;-81
2024/02/11 08:35:27;;;;;;;0.60;0.60;;;7.40;99.90;;;;;;6127190;23;20021;-82
2024/02/11 08:37:55;;;;;;;0.40;0.40;;;7.40;99.90;;;;;;6153369;23;20024;-82
2024/02/11 08:40:21;;;;;;;0.40;0.40;;;7.40;99.90;;;;;;6103361;23;20017;-82
2024/02/11 08:42:47;;;;;;;0.40;0.40;;;7.40;99.90;;;;;;6127177;23;20010;-82
2024/02/11 08:45:14;;;;;;;0.50;0.50;;;7.40;99.90;;;;;;6153649;23;20096;-79
2024/02/11 08:47:39;;;;;;;0.50;0.50;;;7.40;99.90;;;;;;6153956;23;20018;-81
2024/02/11 08:50:07;;;;;;;0.40;0.40;;;7.40;99.90;;;;;;6153227;23;20462;-81
2024/02/11 08:52:33;;;;;;;0.30;0.30;;;7.50;99.90;;;;;;6153107;23;20114;-82
2024/02/11 08:54:59;;;;;;;0.40;0.40;;;7.50;99.90;;;;;;6152924;23;20022;-81
2024/02/11 08:57:26;;;;;;;0.30;0.30;;;7.50;99.90;;;;;;6153246;23;20021;-83
2024/02/11 08:59:55;;;;;;;0.50;0.50;;;7.50;99.90;;;;;;6106221;23;20017;-81
2024/02/11 09:02:24;;;;;;;0.40;0.40;;;7.60;99.90;;;;;;6081008;23;20096;-82
2024/02/11 09:04:49;;;;;;;0.43;0.43;;;7.60;99.90;;;;;;6153053;23;20014;-82
2024/02/11 09:07:18;;;;;;;0.50;0.50;;;7.50;99.90;;;;;;6153816;23;20097;-81
2024/02/11 09:09:43;;;;;;;0.30;0.30;;;7.50;99.90;;;;;;6153551;23;20029;-81
2024/02/11 09:12:10;;;;;;;0.40;0.40;;;7.60;99.90;;;;;;6103806;23;20021;-81
2024/02/11 09:14:38;;;;;;;0.85;0.85;;;7.60;99.90;;;;;;6079216;23;20021;-80
2024/02/11 09:17:05;;;;;;;0.43;0.43;;;7.60;99.90;;;;;;6102852;23;20017;-78
2024/02/11 09:19:31;;;;;;;0.30;0.30;;;7.60;99.90;;;;;;6144623;23;20088;-78
2024/02/11 09:22:05;;;;;;;0.43;0.43;;;7.60;99.90;;;;;;6149108;23;20497;-79
2024/02/11 09:24:33;;;;;;;0.30;0.30;;;7.60;99.90;;;;;;6126013;23;20006;-80
2024/02/11 09:26:59;;;;;;;0.30;0.30;;;7.70;99.90;;;;;;6099581;23;20017;-80
2024/02/11 09:29:26;;;;;;;;;;;7.70;99.90;;;;;;6121865;23;20025;-79
2024/02/11 09:31:52;;;;;;;0.50;0.50;;;7.70;99.90;;;;;;6102983;23;19912;-79
2024/02/11 09:34:17;;;;;;;;;;;7.70;99.90;;;;;;6129170;23;20063;-80
2024/02/11 09:36:44;;;;;;;0.47;0.47;;;7.70;99.90;;;;;;6155679;23;20236;-81
2024/02/11 09:39:10;;;;;;;0.30;0.30;;;7.70;99.90;;;;;;6128121;23;20138;-80
2024/02/11 09:41:37;;;;;;;0.40;0.40;;;7.80;99.90;;;;;;6156236;23;20474;-79
2024/02/11 09:44:04;;;;;;;0.40;0.40;;;7.80;99.90;;;;;;6154597;23;20029;-80
2024/02/11 09:46:37;;;;;;;0.82;0.82;;;7.80;99.90;;;;;;6130076;23;20021;-79
2024/02/11 09:49:14;;;;;;;0.50;0.50;;;7.80;99.90;;;;;;6154902;23;20056;-81
2024/02/11 09:51:41;;;;;;;0.50;0.50;;;7.80;99.90;;;;;;6129080;23;20014;-81
2024/02/11 09:54:07;;;;;;;0.50;0.50;;;7.80;99.90;;;;;;6081224;23;20021;-81
2024/02/11 09:56:34;;;;;;;0.75;0.57;;;7.90;99.90;;;;;;6155495;23;20096;-80
2024/02/11 09:59:00;;;;;;;0.50;0.50;;;7.90;99.90;;;;;;6153002;23;20116;-81
2024/02/11 10:01:27;;;;;;;0.55;0.55;;;7.90;99.90;;;;;;6127004;23;20052;-81
2024/02/11 10:03:57;;;;;;;0.40;0.40;;;7.90;99.90;;;;;;6100739;23;20017;-81
2024/02/11 10:06:33;;;;;;;0.40;0.40;;;7.90;99.90;;;;;;6164441;23;20028;-80
2024/02/11 10:08:58;;;;;;;0.60;0.60;;;8.00;99.90;;;;;;6145846;23;20091;-81
2024/02/11 10:11:26;;;;;;;1.38;1.38;;;8.00;99.90;;;;;;6131564;23;20019;-80
2024/02/11 10:13:57;;;;;;;0.38;0.38;;;8.00;99.90;;;;;;6157464;23;20021;-81
2024/02/11 10:16:23;;;;;;;0.28;0.28;;;8.10;99.90;;;;;;6156931;23;20017;-83
2024/02/11 10:18:50;;;;;;;0.50;0.50;;;8.10;99.90;;;;;;6127628;23;20171;-82
2024/02/11 10:21:16;;;;;;;0.60;0.60;;;8.20;99.90;;;;;;6153429;23;20013;-80
2024/02/11 10:23:44;;;;;;;1.77;1.67;;;8.20;99.90;;;;;;6130001;23;20588;-82
2024/02/11 10:26:12;;;;;;;0.50;0.50;;;8.20;99.90;;;;;;6128397;23;20045;-81
2024/02/11 10:28:39;;;;;;;0.40;0.40;;;8.20;99.90;;;;;;6154334;23;20113;-80
2024/02/11 10:31:06;;;;;;;0.70;0.70;;;8.20;99.90;;;;;;6105737;23;20017;-82
2024/02/11 10:33:32;;;;;;;0.40;0.40;;;8.20;99.90;;;;;;6162186;23;20028;-83
2024/02/11 10:36:03;;;;;;;0.90;0.90;;;8.20;99.90;;;;;;6160342;23;20025;-80
2024/02/11 10:38:36;;;;;;;0.30;0.30;;;8.30;99.90;;;;;;6154183;23;20040;-82
2024/02/11 10:41:02;;;;;;;5.10;1.55;;;8.30;99.90;;;;;;6156524;23;20028;-81
2024/02/11 10:43:28;;;;;;;0.40;0.40;;;8.30;99.90;;;;;;6124327;23;20017;-79
2024/02/11 10:45:54;;;;;;;0.93;0.93;;;8.40;99.90;;;;;;6122195;23;20100;-80
2024/02/11 10:48:21;;;;;;;0.45;0.45;;;8.40;99.90;;;;;;6129427;23;20164;-81
2024/02/11 10:51:00;;;;;;;0.52;0.50;;;8.40;99.90;;;;;;6155897;23;20540;-81
2024/02/11 10:53:32;;;;;;;0.40;0.40;;;8.50;99.90;;;;;;6155953;23;20055;-81
2024/02/11 10:55:59;;;;;;;0.95;0.47;;;8.40;99.90;;;;;;6155075;23;20469;-80
2024/02/11 10:58:31;;;;;;;0.43;0.43;;;8.40;99.90;;;;;;6129733;23;20017;-81
2024/02/11 11:01:00;;;;;;;0.30;0.30;;;8.50;99.90;;;;;;6101623;23;20069;-80
2024/02/11 11:03:28;;;;;;;0.30;0.30;;;8.50;99.90;;;;;;6103216;23;20013;-80
2024/02/11 11:05:57;;;;;;;0.30;0.30;;;8.40;99.90;;;;;;6081386;23;20021;-80
2024/02/11 11:08:23;;;;;;;2.80;1.05;;;8.40;99.90;;;;;;6128241;23;20039;-81
2024/02/11 11:10:49;;;;;;;0.32;0.32;;;8.50;99.90;;;;;;6126509;23;20017;-80
2024/02/11 11:13:23;;;;;;;0.40;0.40;;;8.50;99.90;;;;;;6160733;23;20013;-81
2024/02/11 11:15:50;;;;;;;0.32;0.32;;;10.50;99.90;;;;;;6157155;23;20022;-81
2024/02/11 11:18:24;;;;;;;0.40;0.40;;;8.50;99.90;;;;;;6101350;23;20053;-81
2024/02/11 11:20:52;;;;;;;0.43;0.43;;;8.60;99.90;;;;;;6127979;23;20055;-80
2024/02/11 11:23:18;;;;;;;0.45;0.45;;;8.60;99.90;;;;;;6125646;23;20236;-80
2024/02/11 11:25:44;;;;;;;0.40;0.40;;;;;;;;;;6125616;23;20055;-80
2024/02/11 11:28:09;;;;;;;0.30;0.30;;;8.60;99.90;;;;;;6125437;23;20454;-79
2024/02/11 11:30:35;;;;;;;0.52;0.52;;;8.70;99.90;;;;;;6125209;23;20045;-79
2024/02/11 11:33:04;;;;;;;0.60;0.60;;;8.70;99.90;;;;;;6123526;23;20017;-79
2024/02/11 11:35:30;;;;;;;0.40;0.40;;;8.80;99.90;;;;;;6123497;23;20014;-80
2024/02/11 11:38:04;;;;;;;0.40;0.40;;;8.80;99.90;;;;;;6124060;23;20021;-79
2024/02/11 11:40:32;;;;;;;0.85;0.85;;;8.80;99.90;;;;;;6125809;23;20024;-80
2024/02/11 11:42:58;;;;;;;1.00;1.00;;;8.90;99.90;;;;;;6098987;23;20104;-80
2024/02/11 11:45:23;;;;;;;0.40;0.40;;;8.90;99.90;;;;;;6148033;23;20354;-79
2024/02/11 11:47:53;;;;;;;0.77;0.77;;;8.90;99.90;;;;;;6099628;23;20096;-80
2024/02/11 11:50:19;;;;;;;0.50;0.50;;;8.90;99.90;;;;;;6097131;23;20088;-80
2024/02/11 11:52:47;;;;;;;0.40;0.40;;;8.90;99.90;;;;;;6150734;23;20096;-80
2024/02/11 11:55:13;;;;;;;0.90;0.90;;;9.00;99.90;;;;;;6099165;23;20334;-81
2024/02/11 11:57:39;;;;;;;;;;;9.00;99.90;;;;;;6151458;23;20021;-79
2024/02/11 12:00:07;;;;;;;0.90;0.90;;;9.00;99.90;;;;;;6123325;23;19927;-81
2024/02/11 12:02:35;;;;;;;1.13;1.08;;;9.00;99.90;;;;;;6126015;23;20552;-80
2024/02/11 12:05:02;;;;;;;0.68;0.68;;;9.00;99.90;;;;;;6076812;23;20024;-80
2024/02/11 12:07:32;;;;;;;3.05;2.85;;;9.00;99.90;;;;;;6127081;23;20024;-80
2024/02/11 12:09:57;;;;;;;1.55;1.08;;;9.00;99.90;;;;;;6100422;23;20025;-81
2024/02/11 12:12:23;;;;;;;1.70;1.60;;;9.00;99.90;;;;;;6097338;23;20021;-82
2024/02/11 12:14:50;;;;;;;2.15;2.05;;;9.00;99.90;;;;;;6096459;23;20357;-81
2024/02/11 12:17:16;;;;;;;0.55;0.55;;;9.00;99.90;;;;;;6121195;23;20102;-80
2024/02/11 12:19:43;;;;;;;0.47;0.47;;;8.90;99.90;;;;;;6147724;23;20125;-81
2024/02/11 12:22:09;;;;;;;0.60;0.60;;;8.90;99.90;;;;;;6096989;23;20021;-81
2024/02/11 12:24:38;;;;;;;0.82;0.80;;;9.00;99.90;;;;;;6098493;23;20017;-79
2024/02/11 12:27:05;;;;;;;0.77;0.70;;;8.90;99.90;;;;;;6097281;23;20025;-81
2024/02/11 12:29:31;;;;;;;0.32;0.32;;;8.80;99.90;;;;;;6122536;23;20017;-80
2024/02/11 12:31:57;;;;;;;;;;;8.80;99.90;;;;;;6120455;23;20021;-81
2024/02/11 12:34:29;;;;;;;0.95;0.95;;;8.80;99.90;;;;;;6145041;23;19916;-81
2024/02/11 12:37:04;;;;;;;0.68;0.68;;;8.80;99.90;;;;;;6146938;23;20021;-80
2024/02/11 12:39:31;;;;;;;0.32;0.32;;;8.80;99.90;;;;;;6120978;23;20021;-81
2024/02/11 12:41:57;;;;;;;0.40;0.40;;;8.80;99.90;;;;;;6120826;23;20014;-81
2024/02/11 12:44:23;;;;;;;;;;;8.80;99.90;;;;;;6146775;23;20024;-80
2024/02/11 12:46:52;;;;;;;0.40;0.40;;;8.90;99.90;;;;;;6146142;23;19940;-80
2024/02/11 12:49:17;;;;;;;;;;;8.90;99.90;;;;;;6120269;23;20025;-80
2024/02/11 12:51:44;;;;;;;0.73;0.73;;;10.50;99.90;;;;;;6120423;23;20400;-80
2024/02/11 12:54:10;;;;;;;1.58;1.48;;;9.00;99.90;;;;;;6148479;23;20021;-80
2024/02/11 12:56:37;;;;;;;2.85;2.58;;;9.10;99.90;;;;;;6148080;23;20009;-80
2024/02/11 12:59:03;;;;;;;1.30;1.25;;;9.10;99.90;;;;;;6147184;23;20605;-80
2024/02/11 13:01:29;;;;;;;0.80;0.80;;;9.10;99.90;;;;;;6149903;23;20117;-80
2024/02/11 13:03:55;;;;;;;0.98;0.50;;;9.10;99.90;;;;;;6099754;23;20017;-80